createdAt,value
2023-02-09T00:03:09.045Z,17.80
2023-02-09T00:06:02.897Z,19.47
2023-02-09T00:08:54.325Z,22.07
2023-02-09T00:14:25.996Z,18.40
2023-02-09T00:20:01.539Z,23.15
2023-02-09T00:22:52.858Z,19.55
2023-02-09T00:25:44.200Z,20.15
2023-02-09T00:28:36.203Z,19.40
2023-02-09T00:31:27.901Z,18.12
2023-02-09T00:34:19.196Z,16.75
2023-02-09T00:37:13.700Z,21.60
2023-02-09T00:40:06.724Z,21.42
2023-02-09T00:43:01.599Z,20.68
2023-02-09T00:48:34.084Z,19.07
2023-02-09T00:54:05.757Z,18.92
2023-02-09T00:56:58.822Z,16.45
2023-02-09T00:59:51.158Z,18.60
2023-02-09T01:02:42.722Z,17.48
2023-02-09T01:08:16.921Z,18.20
2023-02-09T01:11:14.088Z,16.55
2023-02-09T01:14:06.000Z,20.12
2023-02-09T01:19:38.453Z,23.12
2023-02-09T01:25:12.033Z,23.05
2023-02-09T01:28:03.641Z,20.60
2023-02-09T01:33:34.461Z,19.52
2023-02-09T01:39:06.168Z,19.70
2023-02-09T01:41:59.227Z,18.30
2023-02-09T01:47:48.749Z,20.92
2023-02-09T01:50:43.491Z,21.00
2023-02-09T01:53:35.775Z,20.37
2023-02-09T01:56:31.116Z,19.42
2023-02-09T01:59:23.036Z,17.70
2023-02-09T02:02:14.941Z,22.15
2023-02-09T02:05:09.461Z,17.65
2023-02-09T02:08:04.781Z,17.55
2023-02-09T02:10:57.148Z,20.17
2023-02-09T02:16:36.121Z,22.25
2023-02-09T02:19:46.575Z,21.97
2023-02-09T02:29:46.636Z,20.15
2023-02-09T02:32:53.519Z,18.50
2023-02-09T02:35:48.151Z,19.25
2023-02-09T02:38:42.756Z,20.75
2023-02-09T02:41:39.223Z,19.80
2023-02-09T02:44:31.926Z,20.17
2023-02-09T02:47:25.094Z,20.40
2023-02-09T02:50:22.831Z,18.50
2023-02-09T02:53:16.805Z,20.90
2023-02-09T02:56:11.845Z,20.12
2023-02-09T02:59:06.624Z,20.23
2023-02-09T03:02:00.998Z,17.90
2023-02-09T03:04:55.867Z,20.55
2023-02-09T03:10:32.892Z,22.80
2023-02-09T03:13:38.384Z,21.00
2023-02-09T03:19:26.367Z,19.48
2023-02-09T03:25:04.190Z,22.37
2023-02-09T03:30:40.888Z,21.30
2023-02-09T03:38:54.898Z,18.95
2023-02-09T03:44:27.862Z,19.77
2023-02-09T03:47:19.558Z,21.42
2023-02-09T03:50:11.889Z,22.95
2023-02-09T03:53:05.831Z,22.87
2023-02-09T03:55:57.320Z,20.77
2023-02-09T03:58:48.998Z,21.05
2023-02-09T04:01:40.973Z,19.40
2023-02-09T04:04:32.462Z,19.23
2023-02-09T04:07:23.984Z,20.80
2023-02-09T04:10:15.346Z,19.57
2023-02-09T04:13:07.222Z,17.42
2023-02-09T04:15:58.460Z,20.52
2023-02-09T04:18:49.936Z,19.90
2023-02-09T04:21:41.755Z,20.70
2023-02-09T04:24:33.292Z,20.62
2023-02-09T04:27:24.857Z,19.62
2023-02-09T04:32:56.717Z,23.35
2023-02-09T04:38:29.950Z,23.52
2023-02-09T04:43:59.420Z,20.92
2023-02-09T04:46:50.813Z,21.35
2023-02-09T04:52:39.950Z,21.12
2023-02-09T04:58:30.412Z,20.55
2023-02-09T05:04:01.064Z,17.85
2023-02-09T05:06:54.533Z,21.62
2023-02-09T05:09:45.935Z,17.77
2023-02-09T05:12:37.286Z,19.27
2023-02-09T05:18:08.005Z,19.92
2023-02-09T05:23:40.506Z,24.40
2023-02-09T05:26:31.890Z,21.27
2023-02-09T05:29:23.258Z,21.35
2023-02-09T05:32:14.967Z,21.77
2023-02-09T05:35:08.416Z,21.27
2023-02-09T05:37:59.840Z,23.40
2023-02-09T05:40:51.557Z,22.50
2023-02-09T05:43:48.316Z,26.85
2023-02-09T05:46:36.964Z,22.80
2023-02-09T05:49:28.415Z,21.62
2023-02-09T05:52:21.661Z,23.62
2023-02-09T05:55:13.571Z,25.80
2023-02-09T05:58:06.325Z,24.82
2023-02-09T06:03:39.188Z,25.30
2023-02-09T06:06:31.073Z,24.75
2023-02-09T06:09:22.990Z,24.23
2023-02-09T06:14:56.613Z,23.67
2023-02-09T06:23:15.218Z,24.52
2023-02-09T06:26:10.225Z,23.50
2023-02-09T06:29:01.603Z,24.95
2023-02-09T06:31:53.161Z,23.57
2023-02-09T06:34:44.659Z,24.37
2023-02-09T06:43:02.600Z,24.52
2023-02-09T06:48:42.411Z,23.30
2023-02-09T06:54:21.346Z,22.10
2023-02-09T06:57:13.139Z,26.00
2023-02-09T07:02:49.210Z,24.67
2023-02-09T07:08:27.878Z,20.72
2023-02-09T07:11:23.841Z,24.25
2023-02-09T07:14:15.474Z,22.32
2023-02-09T07:19:48.554Z,22.80
2023-02-09T07:22:41.801Z,25.30
2023-02-09T07:28:21.376Z,27.05
2023-02-09T07:31:15.688Z,24.52
2023-02-09T07:36:51.963Z,30.23
2023-02-09T07:39:43.640Z,26.37
2023-02-09T07:42:37.938Z,24.18
2023-02-09T07:48:23.432Z,30.02
2023-02-09T07:53:58.388Z,24.43
2023-02-09T07:56:50.442Z,24.55
2023-02-09T07:59:46.691Z,22.42
2023-02-09T08:05:23.288Z,24.12
2023-02-09T08:25:00.727Z,23.77
2023-02-09T08:27:57.458Z,24.95
2023-02-09T08:33:34.001Z,20.75
2023-02-09T08:36:27.831Z,23.87
2023-02-09T08:42:30.523Z,25.72
2023-02-09T08:45:33.328Z,19.15
2023-02-09T08:48:24.972Z,18.77
2023-02-09T08:51:20.787Z,22.10
2023-02-09T08:54:12.339Z,19.85
2023-02-09T08:59:51.282Z,18.40
2023-02-09T09:02:43.160Z,19.50
2023-02-09T09:08:24.233Z,20.02
2023-02-09T09:11:16.104Z,21.20
2023-02-09T09:14:12.708Z,21.05
2023-02-09T09:19:55.621Z,19.75
2023-02-09T09:36:54.912Z,22.90
2023-02-09T09:39:46.506Z,23.80
2023-02-09T09:45:50.295Z,25.68
2023-02-09T09:48:45.522Z,21.25
2023-02-09T09:54:35.261Z,20.95
2023-02-09T09:57:29.146Z,21.50
2023-02-09T10:00:33.174Z,21.37
2023-02-09T10:03:26.134Z,22.73
2023-02-09T10:06:20.739Z,21.48
2023-02-09T10:09:23.048Z,21.62
2023-02-09T10:12:45.801Z,20.30
2023-02-09T10:15:50.651Z,16.70
2023-02-09T10:18:43.529Z,17.77
2023-02-09T10:21:37.352Z,16.07
2023-02-09T10:24:30.893Z,17.27
2023-02-09T10:30:25.838Z,17.37
2023-02-09T10:39:08.167Z,15.30
2023-02-09T10:45:16.583Z,14.83
2023-02-09T10:54:04.294Z,15.95
2023-02-09T10:57:00.390Z,14.70
2023-02-09T11:00:15.000Z,14.03
2023-02-09T11:03:08.286Z,19.17
2023-02-09T11:23:48.897Z,14.83
2023-02-09T11:26:48.279Z,14.33
2023-02-09T11:29:48.136Z,13.28
2023-02-09T11:32:47.986Z,16.07
2023-02-09T11:38:29.512Z,17.73
2023-02-09T11:44:06.376Z,19.50
2023-02-09T11:47:03.558Z,16.77
2023-02-09T11:49:58.586Z,15.40
2023-02-09T11:52:54.307Z,17.75
2023-02-09T11:58:40.132Z,13.85
2023-02-09T12:04:20.525Z,14.78
2023-02-09T12:07:16.893Z,16.87
2023-02-09T12:10:20.294Z,14.35
2023-02-09T12:13:15.741Z,13.05
2023-02-09T12:18:58.175Z,14.60
2023-02-09T12:24:59.233Z,15.38
2023-02-09T12:31:09.412Z,15.32
2023-02-09T12:37:31.287Z,13.62
2023-02-09T12:43:29.024Z,12.60
2023-02-09T12:49:34.900Z,12.93
2023-02-09T12:52:27.066Z,14.20
2023-02-09T12:58:04.168Z,10.55
2023-02-09T13:00:58.115Z,14.63
2023-02-09T13:06:39.307Z,9.55
2023-02-09T13:09:33.430Z,11.33
2023-02-09T13:15:16.997Z,10.20
2023-02-09T13:18:23.054Z,9.53
2023-02-09T13:21:22.268Z,12.60
2023-02-09T13:24:22.644Z,9.70
2023-02-09T13:27:22.321Z,11.00
2023-02-09T13:30:17.698Z,9.70
2023-02-09T13:33:15.217Z,10.65
2023-02-09T13:39:20.172Z,11.08
2023-02-09T13:42:20.982Z,11.68
2023-02-09T13:45:20.984Z,13.40
2023-02-09T13:48:24.497Z,10.13
2023-02-09T13:54:09.223Z,12.95
2023-02-09T13:57:04.324Z,11.57
2023-02-09T13:59:56.297Z,12.18
2023-02-09T14:05:34.112Z,12.25
2023-02-09T14:08:27.216Z,11.57
2023-02-09T14:11:42.016Z,10.58
2023-02-09T14:14:27.348Z,10.10
2023-02-09T14:17:26.512Z,8.00
2023-02-09T14:20:25.310Z,10.15
2023-02-09T14:26:05.946Z,8.90
2023-02-09T14:29:12.235Z,11.38
2023-02-09T14:32:07.877Z,11.33
2023-02-09T14:35:10.476Z,10.25
2023-02-09T14:38:05.011Z,11.90
2023-02-09T14:40:59.034Z,13.15
2023-02-09T14:44:01.876Z,12.03
2023-02-09T14:47:01.125Z,9.13
2023-02-09T14:49:52.469Z,11.20
2023-02-09T14:52:47.061Z,10.90
2023-02-09T14:55:40.626Z,10.25
2023-02-09T14:58:42.219Z,11.57
2023-02-09T15:01:35.318Z,16.23
2023-02-09T15:04:29.488Z,9.18
2023-02-09T15:07:24.160Z,9.13
2023-02-09T15:13:44.989Z,6.22
2023-02-09T15:16:36.650Z,8.63
2023-02-09T15:19:28.316Z,11.63
2023-02-09T15:22:20.424Z,6.37
2023-02-09T15:25:14.710Z,6.65
2023-02-09T15:28:28.141Z,7.75
2023-02-09T15:31:16.414Z,6.42
2023-02-09T15:34:08.611Z,9.65
2023-02-09T15:39:46.796Z,5.05
2023-02-09T15:43:06.176Z,6.55
2023-02-09T15:46:18.395Z,5.30
2023-02-09T15:49:10.075Z,5.55
2023-02-09T15:52:07.787Z,7.37
2023-02-09T15:55:06.843Z,7.35
2023-02-09T15:57:59.102Z,7.58
2023-02-09T16:00:52.404Z,5.70
2023-02-09T16:03:44.125Z,3.58
2023-02-09T16:06:36.471Z,5.78
2023-02-09T16:09:34.449Z,7.95
2023-02-09T16:12:25.849Z,6.90
2023-02-09T16:15:27.705Z,6.22
2023-02-09T16:18:19.200Z,7.00
2023-02-09T16:21:13.997Z,6.17
2023-02-09T16:24:19.108Z,3.20
2023-02-09T16:27:25.005Z,5.25
2023-02-09T16:30:26.211Z,6.53
2023-02-09T16:33:26.332Z,5.95
2023-02-09T16:36:28.382Z,6.92
2023-02-09T16:39:23.803Z,5.85
2023-02-09T16:42:19.021Z,5.62
2023-02-09T16:45:14.487Z,6.75
2023-02-09T16:48:08.320Z,5.55
2023-02-09T16:51:00.146Z,5.05
2023-02-09T16:53:53.795Z,5.33
2023-02-09T16:56:54.066Z,7.50
2023-02-09T16:59:47.181Z,8.40
2023-02-09T17:02:41.928Z,7.03
2023-02-09T17:05:36.527Z,5.65
2023-02-09T17:08:32.206Z,7.60
2023-02-09T17:11:25.417Z,7.40
2023-02-09T17:14:17.106Z,8.10
2023-02-09T17:17:13.448Z,8.78
2023-02-09T17:22:49.976Z,9.00
2023-02-09T17:25:41.415Z,8.78
2023-02-09T17:28:33.376Z,7.87
2023-02-09T17:31:27.024Z,6.47
2023-02-09T17:34:18.714Z,7.08
2023-02-09T17:37:15.474Z,7.47
2023-02-09T17:40:07.963Z,7.15
2023-02-09T17:42:59.964Z,6.17
2023-02-09T17:45:52.304Z,7.08
2023-02-09T17:48:43.907Z,8.20
2023-02-09T17:51:48.590Z,8.70
2023-02-09T17:54:36.748Z,7.87
2023-02-09T17:57:28.662Z,10.00
2023-02-09T18:00:21.164Z,8.15
2023-02-09T18:03:16.756Z,8.25
2023-02-09T18:06:15.554Z,8.73
2023-02-09T18:12:03.723Z,7.97
2023-02-09T18:14:59.266Z,9.23
2023-02-09T18:17:51.868Z,8.75
2023-02-09T18:20:44.104Z,8.78
2023-02-09T18:23:35.914Z,8.55
2023-02-09T18:26:27.490Z,6.87
2023-02-09T18:29:18.935Z,9.20
2023-02-09T18:32:12.666Z,8.43
2023-02-09T18:35:04.937Z,6.60
2023-02-09T18:37:56.495Z,8.58
2023-02-09T18:40:48.179Z,7.60
2023-02-09T18:43:41.689Z,7.90
2023-02-09T18:46:34.536Z,17.20
2023-02-09T18:49:26.520Z,9.30
2023-02-09T18:52:22.167Z,12.93
2023-02-09T18:55:14.273Z,10.32
2023-02-09T18:58:09.648Z,11.08
2023-02-09T19:01:01.129Z,10.15
2023-02-09T19:03:53.786Z,8.38
2023-02-09T19:06:45.491Z,6.95
2023-02-09T19:09:38.856Z,7.40
2023-02-09T19:12:30.500Z,9.00
2023-02-09T19:15:24.952Z,11.12
2023-02-09T19:18:16.487Z,9.65
2023-02-09T19:23:49.499Z,10.43
2023-02-09T19:29:31.094Z,7.85
2023-02-09T19:32:22.983Z,9.55
2023-02-09T19:37:59.491Z,11.12
2023-02-09T19:40:56.689Z,9.63
2023-02-09T19:43:44.215Z,12.55
2023-02-09T19:46:35.618Z,12.70
2023-02-09T19:49:27.349Z,13.13
2023-02-09T19:52:20.562Z,14.30
2023-02-09T19:55:13.569Z,13.75
2023-02-09T19:58:05.380Z,15.00
2023-02-09T20:00:58.832Z,15.60
2023-02-09T20:03:53.723Z,16.55
2023-02-09T20:06:45.248Z,15.75
2023-02-09T20:09:37.859Z,23.70
2023-02-09T20:12:29.457Z,18.50
2023-02-09T20:15:36.699Z,17.73
2023-02-09T20:18:18.114Z,15.03
2023-02-09T20:21:10.848Z,13.40
2023-02-09T20:24:02.192Z,13.45
2023-02-09T20:26:54.140Z,13.32
2023-02-09T20:29:45.908Z,12.47
2023-02-09T20:32:37.764Z,12.10
2023-02-09T20:35:29.465Z,14.35
2023-02-09T20:38:21.561Z,12.90
2023-02-09T20:41:16.915Z,11.30
2023-02-09T20:44:26.229Z,11.88
2023-02-09T20:47:17.568Z,11.88
2023-02-09T20:50:09.660Z,12.68
2023-02-09T20:53:01.805Z,13.93
2023-02-09T20:55:53.294Z,16.42
2023-02-09T20:58:46.032Z,17.62
2023-02-09T21:01:40.455Z,19.20
2023-02-09T21:04:51.480Z,19.35
2023-02-09T21:07:42.804Z,17.50
2023-02-09T21:10:35.899Z,15.60
2023-02-09T21:13:29.996Z,14.20
2023-02-09T21:16:21.720Z,12.23
2023-02-09T21:19:13.208Z,12.93
2023-02-09T21:22:04.383Z,16.32
2023-02-09T21:24:57.472Z,15.28
2023-02-09T21:27:54.222Z,15.98
2023-02-09T21:30:46.966Z,13.95
2023-02-09T21:33:38.929Z,16.57
2023-02-09T21:36:30.338Z,15.03
2023-02-09T21:52:35.577Z,14.65
2023-02-09T21:58:09.777Z,15.03
2023-02-09T22:01:01.766Z,14.30
2023-02-09T22:03:55.326Z,15.72
2023-02-09T22:06:47.406Z,16.25
2023-02-09T22:09:51.490Z,15.83
2023-02-09T22:12:44.213Z,12.35
2023-02-09T22:15:35.794Z,12.90
2023-02-09T22:18:27.592Z,11.53
2023-02-09T22:21:19.333Z,13.22
2023-02-09T22:24:13.323Z,11.43
2023-02-09T22:27:05.693Z,12.93
2023-02-09T22:29:58.559Z,13.00
2023-02-09T22:32:50.034Z,11.85
2023-02-09T22:35:43.584Z,10.50
2023-02-09T22:38:35.222Z,10.50
2023-02-09T22:41:27.069Z,11.48
2023-02-09T22:44:19.370Z,14.03
2023-02-09T22:47:10.674Z,13.43
2023-02-09T22:50:04.473Z,12.88
2023-02-09T22:52:55.726Z,11.50
2023-02-09T22:55:48.637Z,13.35
2023-02-09T22:58:41.315Z,13.48
2023-02-09T23:01:33.082Z,14.85
2023-02-09T23:04:24.762Z,15.08
2023-02-09T23:07:16.465Z,12.88
2023-02-09T23:10:08.470Z,14.53
2023-02-09T23:13:01.310Z,13.72
2023-02-09T23:15:52.938Z,10.30
2023-02-09T23:18:50.148Z,12.40
2023-02-09T23:21:44.570Z,11.08
2023-02-09T23:24:35.770Z,10.18
2023-02-09T23:27:27.154Z,12.10
2023-02-09T23:30:22.228Z,9.68
2023-02-09T23:33:16.703Z,12.33
2023-02-09T23:36:12.079Z,12.40
2023-02-09T23:39:06.802Z,13.10
2023-02-09T23:41:58.019Z,11.57
2023-02-09T23:44:49.758Z,13.18
2023-02-09T23:47:41.418Z,11.50
2023-02-09T23:50:32.871Z,11.80
2023-02-09T23:53:24.192Z,12.53
2023-02-09T23:56:18.364Z,11.90
2023-02-09T23:59:12.569Z,11.43
